If you wish to contribute or participate in the discussions about articles you are invited to join SKYbrary as a registered user

 Actions

Bettles Airport

From SKYbrary Wiki

PABT
Airport
ICAO: PABT – IATA: BTT
Summary
Name Bettles Airport
Region North America
Territory Alaska US.gif
Location , Alaska
Serving Bettles
Elevation 197.206 m
647 ft
647 ft197.206 m
Type medium airport
Coordinates 66° 54' 50.20" N, 151° 31' 44.60" W
Runways
Designator Length Width Surface ROPS
1/19 1582 m5,190.289 ft
46 m150.919 ft
GVL /


METAR
Observation PABT 221153Z 32008KT 10SM FEW080 SCT140 SCT200 M09/M14 A2974 RMK AO2 SLP087 70003 4/044 T10941144 11072 21100 58006 PNO
Station Bettles, Bettles Airport
Date/Time 22 March 2019 11:53:00
Wind direction 320°
Wind speed 08 kts
Lowest cloud amount few clouds
Temperature
Dew point
Humidity 66%
QNH hPa
Weather condition n/a